Cincinnati Northern Kentucky International Airport
KCVG : now visible

Airfield :











YOU CAN JOIN US ON...

 
LOGIN :

Register | Disclaimer

   EN    FR    IT 

 









Legend :    VFR   Marginal VFR   IFR   Intensive IFR   Very Intensive IFR
Visi :
Ceiling :
>= 8 km
>= 3000ft
5 to 8 km
1000 to 3000 ft
1500m to 5 km
500 to 1000 ft
800 to 1500m
200 to 500 ft
< 800m
< 200 ft
Symbols :   Thunderstorms  Fog  Heavy snow  Heavy precipitations  Wind > 20 kt






- Airport Elevation : 896 ft
- IATA code : CVG


KCVG - Cincinnati Northern Kentucky International

CURRENT METAR :
  • 030852Z 01006KT 10SM OVC085 23/18 A3006 RMK AO2 SLP166 60000 T02330178 55002 $

EXPIRED METARs :
  • 030752Z 34006KT 10SM OVC080 23/17 A3005 RMK AO2 SLP163 T02330172 $
  • 030652Z 07003KT 10SM OVC090 24/18 A3004 RMK AO2 RAB0554E17 SLP162 P0000 T02390178 $
  • 030552Z 35003KT 10SM FEW085 BKN100 BKN120 OVC140 24/17 A3006 RMK AO2 RAE21B37E49 SLP168 P0000 60000 T02440172 10283 20239 51005 $

TAF KCVG
Valid from the 03 at 06:00 until the 04 at 12:00 UTC


030530Z 0306/0412 35006KT P6SM VCSH SCT050 OVC090
FM030800 03005KT P6SM VCSH BKN100
FM031100 04005KT P6SM SCT120
FM031400 06007KT P6SM SCT250
FM040000 09005KT P6SM SKC
KZID FIR / North America



MET'MAP, your aeronautical weather chart ! - Copyright ORBIFLY December 2007 - Disclaimer

ORBIFLY MET'MAP TEAM :

Programming & Development : Alexandra Zaïnal
Original concept : Baudouin d'Aumeries
Technical & hardware support : Manuel Goepfert
Assistance : Marc-Olivier Méhu




SOURCES & CREDITS :

   NOAA       Earth
Advisory